Guatemala City, Guatemala
Current Conditions -  °F | °C
As of 5:00 PM on Friday 19 Dec 2014 (Local Time) from MGGT Reporting Station
Few Clouds Few Clouds  
Wind Chill: 22°   Ceiling: Unl
Heat Index: 22°   Visibility: 5mi
Dew Point: 17°   Wind: 7mph
Humidity: 73%   Direction: 180°S
Pressure: 30.21"   Gusts: NA
Location:  14.58°N, 90.52°W
Report Text: MGGT 192300Z 18006KT 8000 FEW018 22/17 Q1023 A3021 HZ
Loading
Personal Weather Stations






























Interactive Weather Map New forecast layout! Learn more

10-Day Weather Forecast

Advertisements
Track Severe Weather on mobile